Time;durP1;ratioP1;P1;durP2;ratioP2;P2;SDS_P1;SDS_P2;PMS_P1;PMS_P2;Temp;Humidity;BMP_temperature;BMP_pressure;BME280_temperature;BME280_humidity;BME280_pressure;Samples;Min_cycle;Max_cycle;Signal;HPM_P1;HPM_P2
2022/12/12 08:07:13;;;;;;;15.07;11.15;;;;;;;;;;12228450;23;10699429;-86
2022/12/12 08:12:14;;;;;;;15.98;12.40;;;;;;;;;;12618693;23;20015;-82
2022/12/12 08:17:15;;;;;;;15.25;11.60;;;;;;;;;;12620342;23;20010;-86
2022/12/12 08:22:16;;;;;;;15.40;11.48;;;;;;;;;;12620232;23;20037;-86
2022/12/12 08:27:17;;;;;;;;;;;;;;;;;;12622287;23;20002;-86
2022/12/12 08:32:19;;;;;;;14.48;10.77;;;;;;;;;;12620801;23;19908;-86
2022/12/12 08:37:20;;;;;;;15.00;11.68;;;;;;;;;;12621085;23;20010;-86
2022/12/12 08:42:21;;;;;;;;;;;;;;;;;;12628300;23;20010;-87
2022/12/12 08:47:22;;;;;;;16.17;10.70;;;;;;;;;;12630617;23;19921;-86
2022/12/12 08:52:23;;;;;;;;;;;;;;;;;;12632597;23;20006;-86
2022/12/12 08:57:24;;;;;;;15.77;11.80;;;;;;;;;;12623656;23;19908;-86
2022/12/12 09:02:25;;;;;;;15.05;11.23;;;;;;;;;;12630973;23;20032;-85
2022/12/12 09:07:26;;;;;;;14.27;10.57;;;;;;;;;;12639028;23;20026;-85
2022/12/12 09:12:27;;;;;;;13.18;11.23;;;;;;;;;;12630353;23;20017;-83
2022/12/12 09:17:28;;;;;;;15.02;11.38;;;;;;;;;;12646794;23;20013;-84
2022/12/12 09:22:29;;;;;;;;;;;;;;;;;;12633025;23;20097;-84
2022/12/12 09:27:30;;;;;;;17.63;12.50;;;;;;;;;;12633971;23;19960;-85
2022/12/12 09:32:31;;;;;;;14.68;11.32;;;;;;;;;;12619763;23;20006;-87
2022/12/12 09:37:32;;;;;;;;;;;;;;;;;;12617269;23;20006;-86
2022/12/12 09:42:35;;;;;;;13.30;10.10;;;;;;;;;;12618124;23;19965;-87
2022/12/12 09:47:39;;;;;;;22.98;15.23;;;;;;;;;;12617735;23;20030;-85
2022/12/12 09:52:40;;;;;;;15.40;12.02;;;;;;;;;;12619636;23;20014;-86
2022/12/12 09:58:11;;;;;;;17.48;13.65;;;;;;;;;;12623831;23;20011;-85
2022/12/12 10:03:15;;;;;;;16.10;10.27;;;;;;;;;;12594734;23;20005;-84
2022/12/12 10:08:50;;;;;;;15.98;11.98;;;;;;;;;;12644721;23;20238;-84
2022/12/12 10:13:53;;;;;;;13.07;10.27;;;;;;;;;;12518226;23;20016;-84
2022/12/12 10:19:21;;;;;;;11.65;8.85;;;;;;;;;;12641878;23;20041;-84
2022/12/12 10:24:28;;;;;;;16.55;12.38;;;;;;;;;;12532652;23;20405;-79
2022/12/12 10:29:29;;;;;;;17.90;14.20;;;;;;;;;;12441815;23;20004;-80
2022/12/12 10:34:30;;;;;;;;;;;;;;;;;;12466693;23;20007;-79
2022/12/12 10:39:50;;;;;;;16.88;13.80;;;;;;;;;;12442606;23;19902;-80
2022/12/12 10:44:54;;;;;;;22.23;17.48;;;;;;;;;;12465135;23;20027;-80
2022/12/12 10:50:05;;;;;;;25.08;18.55;;;;;;;;;;12465195;23;20095;-80
2022/12/12 10:55:33;;;;;;;18.58;13.75;;;;;;;;;;12466435;23;20019;-79
2022/12/12 11:00:35;;;;;;;22.00;15.82;;;;;;;;;;12439301;23;20012;-79
2022/12/12 11:05:36;;;;;;;13.52;10.77;;;;;;;;;;12465163;23;20423;-79
2022/12/12 11:10:37;;;;;;;15.23;9.40;;;;;;;;;;12465465;23;20011;-78
2022/12/12 11:15:49;;;;;;;25.38;18.67;;;;;;;;;;12464749;23;20008;-79
2022/12/12 11:21:00;;;;;;;15.15;10.43;;;;;;;;;;12464442;23;20064;-80
2022/12/12 11:26:21;;;;;;;14.55;10.10;;;;;;;;;;12461176;23;20016;-80
2022/12/12 11:31:22;;;;;;;;;;;;;;;;;;12463460;23;20065;-80
2022/12/12 11:36:27;;;;;;;15.25;11.30;;;;;;;;;;12481408;23;19894;-79
2022/12/12 11:41:49;;;;;;;11.43;9.02;;;;;;;;;;12491764;23;20084;-79
2022/12/12 11:46:55;;;;;;;19.58;14.02;;;;;;;;;;12492780;23;20020;-79
2022/12/12 11:51:56;;;;;;;16.00;9.52;;;;;;;;;;12491926;23;20019;-81
2022/12/12 11:57:03;;;;;;;12.05;8.88;;;;;;;;;;12480548;23;20015;-81
2022/12/12 12:02:07;;;;;;;16.88;11.02;;;;;;;;;;12448551;23;20011;-81
2022/12/12 12:07:15;;;;;;;18.05;10.93;;;;;;;;;;12466673;23;20012;-81
2022/12/12 12:12:20;;;;;;;14.20;10.60;;;;;;;;;;12464939;23;20008;-80
2022/12/12 12:17:27;;;;;;;13.00;9.50;;;;;;;;;;12462544;23;20004;-80
2022/12/12 12:22:34;;;;;;;16.25;11.43;;;;;;;;;;12459953;23;20035;-79
2022/12/12 12:27:45;;;;;;;13.77;10.23;;;;;;;;;;12439574;23;20067;-81
2022/12/12 12:32:52;;;;;;;11.48;8.68;;;;;;;;;;12464311;23;20023;-80
2022/12/12 12:38:11;;;;;;;20.33;15.43;;;;;;;;;;12462041;23;20000;-80
2022/12/12 12:43:31;;;;;;;13.43;9.02;;;;;;;;;;12460722;23;20018;-79
2022/12/12 12:48:36;;;;;;;11.18;9.00;;;;;;;;;;12460304;23;20010;-79
2022/12/12 12:53:40;;;;;;;16.67;11.20;;;;;;;;;;12459193;23;20015;-79
2022/12/12 12:58:45;;;;;;;10.95;8.10;;;;;;;;;;12459464;23;20007;-80
2022/12/12 13:04:05;;;;;;;13.80;9.25;;;;;;;;;;12458909;23;20012;-78
2022/12/12 13:09:15;;;;;;;10.27;7.80;;;;;;;;;;12460618;23;20011;-78
2022/12/12 13:14:34;;;;;;;9.50;7.53;;;;;;;;;;12461412;23;20008;-80
2022/12/12 13:19:40;;;;;;;10.80;8.13;;;;;;;;;;12456209;23;20062;-80
2022/12/12 13:24:59;;;;;;;13.40;8.40;;;;;;;;;;12453589;23;20352;-78
2022/12/12 13:30:03;;;;;;;11.50;8.90;;;;;;;;;;12452789;23;20023;-78
2022/12/12 13:35:07;;;;;;;17.85;13.85;;;;;;;;;;12453864;23;20067;-79
2022/12/12 13:40:21;;;;;;;13.45;10.25;;;;;;;;;;12458090;23;20044;-81
2022/12/12 13:45:31;;;;;;;10.70;8.45;;;;;;;;;;12454665;23;20042;-79
2022/12/12 13:50:32;;;;;;;10.35;8.32;;;;;;;;;;12456603;23;20336;-79
2022/12/12 13:55:40;;;;;;;11.75;9.07;;;;;;;;;;12457014;23;20003;-83
2022/12/12 14:00:42;;;;;;;13.00;9.30;;;;;;;;;;12456437;23;20004;-79
2022/12/12 14:05:52;;;;;;;13.93;9.88;;;;;;;;;;12461410;23;20008;-79
2022/12/12 14:10:53;;;;;;;10.40;7.88;;;;;;;;;;12461047;23;20008;-80
2022/12/12 14:15:54;;;;;;;;;;;;;;;;;;12456107;23;19999;-79
2022/12/12 14:21:02;;;;;;;12.52;8.40;;;;;;;;;;12434792;23;19917;-79
2022/12/12 14:26:23;;;;;;;9.40;7.68;;;;;;;;;;12449572;23;20103;-81
2022/12/12 14:31:25;;;;;;;10.77;8.15;;;;;;;;;;12458895;23;20036;-81
2022/12/12 14:36:29;;;;;;;10.05;7.55;;;;;;;;;;12455091;23;20008;-80
2022/12/12 14:41:32;;;;;;;14.13;7.45;;;;;;;;;;12459411;23;20034;-79
2022/12/12 14:46:39;;;;;;;12.60;8.52;;;;;;;;;;12459425;23;20015;-79
2022/12/12 14:51:40;;;;;;;12.90;7.05;;;;;;;;;;12457846;23;20020;-79
2022/12/12 14:56:41;;;;;;;;;;;;;;;;;;12455719;23;20039;-79
2022/12/12 15:01:43;;;;;;;12.63;7.80;;;;;;;;;;12430558;23;19903;-80
2022/12/12 15:06:45;;;;;;;13.77;10.10;;;;;;;;;;12451936;23;20318;-79
2022/12/12 15:11:47;;;;;;;12.20;8.15;;;;;;;;;;12451598;23;20016;-80
2022/12/12 15:16:49;;;;;;;13.77;8.27;;;;;;;;;;12454996;23;20424;-80
2022/12/12 15:21:50;;;;;;;11.57;7.95;;;;;;;;;;12457826;23;20015;-80
2022/12/12 15:26:53;;;;;;;14.15;8.13;;;;;;;;;;12462221;23;20004;-80
2022/12/12 15:32:05;;;;;;;15.25;9.95;;;;;;;;;;12463638;23;20007;-79
2022/12/12 15:37:11;;;;;;;12.77;9.05;;;;;;;;;;12470821;23;20086;-79
2022/12/12 15:42:13;;;;;;;13.52;9.00;;;;;;;;;;12466078;23;20082;-79
2022/12/12 15:47:14;;;;;;;12.35;9.00;;;;;;;;;;12445284;23;20015;-80
2022/12/12 15:52:21;;;;;;;14.10;9.68;;;;;;;;;;12474682;23;20056;-78
2022/12/12 15:57:27;;;;;;;14.88;10.02;;;;;;;;;;12474179;23;20059;-78
2022/12/12 16:02:28;;;;;;;13.55;9.43;;;;;;;;;;12468658;23;20000;-79
2022/12/12 16:07:35;;;;;;;16.63;10.60;;;;;;;;;;12456397;23;20011;-79
2022/12/12 16:12:55;;;;;;;13.93;9.45;;;;;;;;;;12459723;23;20111;-80
2022/12/12 16:18:00;;;;;;;14.90;10.93;;;;;;;;;;12460920;23;20065;-80
2022/12/12 16:23:18;;;;;;;17.10;13.07;;;;;;;;;;12470329;23;20023;-84
2022/12/12 16:28:26;;;;;;;16.17;12.13;;;;;;;;;;12488339;23;20028;-79
2022/12/12 16:33:30;;;;;;;17.52;12.35;;;;;;;;;;12486119;23;20008;-80
2022/12/12 16:38:31;;;;;;;13.23;10.27;;;;;;;;;;12485992;23;20015;-79
2022/12/12 16:43:32;;;;;;;;;;;;;;;;;;12485853;23;20063;-80
2022/12/12 16:48:34;;;;;;;14.95;11.30;;;;;;;;;;12485765;23;19957;-79
2022/12/12 16:53:36;;;;;;;16.20;12.02;;;;;;;;;;12510650;23;20011;-80
2022/12/12 16:58:37;;;;;;;16.77;13.05;;;;;;;;;;12510580;23;19999;-80
2022/12/12 17:03:38;;;;;;;;;;;;;;;;;;12486949;23;20389;-80
2022/12/12 17:08:42;;;;;;;14.52;11.95;;;;;;;;;;12487731;23;19921;-80
2022/12/12 17:13:48;;;;;;;16.00;12.27;;;;;;;;;;12493362;23;20023;-80
2022/12/12 17:18:49;;;;;;;18.15;13.68;;;;;;;;;;12491304;23;20023;-84
2022/12/12 17:23:50;;;;;;;25.05;19.70;;;;;;;;;;12490193;23;20091;-83
2022/12/12 17:29:18;;;;;;;23.58;17.98;;;;;;;;;;12491003;23;20007;-85
2022/12/12 17:57:29;;;;;;;22.40;17.02;;;;;;;;;;12455125;23;20111;-83
